ADDS METAR Data INFO
IDs: Format: Raw Decoded Include TAF

Data at: 0141 UTC 18 Oct 2017

KELP 180051Z 00000KT 10SM BKN250 26/06 A3013 RMK AO2 SLP147 T02610061
KELP 172351Z 17003KT 10SM FEW100 BKN250 27/07 A3012 RMK AO2 SLP144 T02720067 10294 20233 56012
KELP 172251Z 00000KT 10SM FEW100 BKN250 28/05 A3013 RMK AO2 SLP142 T02780050
KELP 172151Z 00000KT 10SM FEW100 SCT250 28/05 A3015 RMK AO2 SLP145 T02830050
KELP 172051Z 31003KT 10SM FEW095 FEW250 28/06 A3016 RMK AO2 SLP151 T02830061 58034
KELP 171951Z 00000KT 10SM FEW250 27/07 A3020 RMK AO2 SLP166 T02670067
KELP 171851Z 00000KT 10SM FEW250 26/07 A3024 RMK AO2 SLP179 T02560067
KELP 171751Z 00000KT 10SM FEW250 23/04 A3027 RMK AO2 SLP195 T02280039 10233 20117 58007
KELP 171651Z 08004KT 10SM FEW250 21/03 A3029 RMK AO2 SLP205 T02110028
KELP 171551Z 01004KT 10SM FEW250 19/03 A3030 RMK AO2 SLP211 T01890033
KELP 171451Z 36006KT 10SM FEW180 FEW250 15/03 A3030 RMK AO2 SLP209 T01500028 53009
KELP 171351Z 01008KT 10SM FEW250 12/03 A3028 RMK AO2 SLP208 T01170033
KELP 171251Z 02007KT 10SM CLR 13/03 A3028 RMK AO2 SLP202 T01280033
KELP 171151Z 04005KT 10SM CLR 13/03 A3027 RMK AO2 SLP199 T01280033 10189 20128 55003
KELP 171051Z 00000KT 10SM FEW250 16/03 A3027 RMK AO2 SLP191 T01560033
KELP 170951Z 01004KT 10SM FEW250 16/03 A3027 RMK AO2 SLP191 T01610033
KELP 170851Z 06003KT 10SM FEW250 16/03 A3028 RMK AO2 SLP197 T01610028 58004
KELP 170751Z 05004KT 10SM CLR 17/03 A3029 RMK AO2 SLP200 T01670033
KELP 170651Z 00000KT 10SM CLR 18/03 A3029 RMK AO2 SLP201 T01830033 402670133
KELP 170551Z 00000KT 10SM CLR 18/03 A3029 RMK AO2 SLP203 T01830028 10250 20178 58001
KELP 170451Z 00000KT 10SM CLR 18/03 A3030 RMK AO2 SLP210 T01780033
KELP 170351Z 07004KT 10SM CLR 19/04 A3030 RMK AO2 SLP210 T01890044
KELP 170251Z 00000KT 10SM CLR 21/04 A3030 RMK AO2 SLP209 T02110039 53008
KELP 170151Z 01003KT 10SM CLR 23/05 A3028 RMK AO2 SLP204 T02280050
KELP 170051Z 09003KT 10SM CLR 23/04 A3028 RMK AO2 SLP201 T02330044
KELP 162351Z 09004KT 10SM CLR 25/04 A3027 RMK AO2 SLP197 T02500039 10267 20211 56010
KELP 162251Z 00000KT 10SM CLR 27/03 A3028 RMK AO2 SLP196 T02670033
KELP 162151Z VRB03KT 10SM CLR 26/03 A3029 RMK AO2 SLP202 T02560028
KELP 162051Z 11006KT 10SM CLR 25/03 A3031 RMK AO2 SLP207 T02500028 58035
KELP 161951Z VRB04KT 10SM CLR 24/01 A3034 RMK AO2 SLP222 T02390011
KELP 161851Z 13004KT 10SM CLR 22/00 A3038 RMK AO2 SLP238 T02220000
KELP 161751Z 07004KT 10SM FEW090 FEW250 22/M02 A3042 RMK AO2 SLP250 T02221017 10222 20133 58009
KELP 161651Z 35004KT 10SM FEW075 FEW250 20/00 A3044 RMK AO2 SLP261 T02000000
KELP 161551Z 05004KT 10SM FEW065 FEW250 18/M01 A3045 RMK AO2 SLP268 T01781006
KELP 161451Z 36005KT 10SM FEW060 FEW250 16/00 A3045 RMK AO2 SLP268 T01560000 53010
KELP 161351Z 02005KT 10SM FEW140 FEW250 14/00 A3043 RMK AO2 SLP263 T01390000